NCAR-RAP Real-Time Weather Data

Output produced by METARs form (25 September 2018  05:04 UTC)
found at http://weather.rap.ucar.edu/surface/
 
KIAD 250452Z 10009KT 5SM -RA BR BKN007 BKN011 OVC026 18/18 A3030 RMK AO2 DZE30RAB30 SLP259 P0003 T01780178 401830161
KIAD 250352Z 10009KT 10SM -DZ OVC007 18/17 A3032 RMK AO2 DZB0256 SLP265 P0000 T01780172
KIAD 250252Z 09009KT 7SM BR FEW003 BKN006 OVC013 18/17 A3032 RMK AO2 RAB22E39 SLP265 P0000 60001 T01780172 58002
KIAD 250152Z 09009KT 7SM BR FEW003 BKN008 OVC013 18/17 A3032 RMK AO2 RAB0057E07 SLP267 P0000 T01780172
KIAD 250052Z 10005KT 5SM BR BKN005 OVC014 17/17 A3033 RMK AO2 RAB31E41 SLP269 P0001 T01720172
KIAD 242352Z 10007KT 7SM FEW003 BKN007 OVC014 17/17 A3032 RMK AO2 RAB12E43 SLP267 P0001 60003 T01720172 10183 20172 52002
KIAD 242252Z 09007KT 4SM BR BKN007 OVC013 17/17 A3032 RMK AO2 RAB26E50 SLP268 P0000 T01720172
KIAD 242152Z 09008KT 7SM BKN008 OVC014 18/17 A3032 RMK AO2 RAB2056E06 SLP264 P0000 T01780172
KIAD 242052Z 09010KT 5SM BR BKN010 OVC017 18/17 A3032 RMK AO2 RAE05 SLP265 P0000 60002 T01780172 56009
KIAD 241952Z 07006KT 4SM -RA BR BKN007 OVC013 18/18 A3032 RMK AO2 SLP267 P0001 T01780178
KIAD 241852Z 09009KT 5SM -RA BR BKN007 OVC013 18/17 A3034 RMK AO2 RAB17E34B50 SLP271 P0001 T01780172
KIAD 241814Z 08008KT 3SM BR OVC009 18/18 A3034 RMK AO2 T01830178
KIAD 241752Z 08011KT 10SM OVC009 18/17 A3034 RMK AO2 SLP274 60005 T01830172 10183 20167 58004
KIAD 241652Z 09008KT 10SM OVC009 18/17 A3035 RMK AO2 SLP276 T01830172
KIAD 241552Z 07010KT 10SM BKN009 18/17 A3035 RMK AO2 RAE43 SLP276 P0000 T01780172
KIAD 241452Z 08008KT 8SM -RA BKN009 OVC012 18/17 A3035 RMK AO2 SLP277 P0003 60005 T01780172 51014
KIAD 241352Z 08007KT 10SM -RA OVC008 17/17 A3035 RMK AO2 CIG 006V013 SLP275 P0001 T01720172
KIAD 241252Z 07005KT 6SM -RA BR OVC007 17/17 A3033 RMK AO2 DZE05RAB05 SLP271 P0001 T01720172
KIAD 241207Z 06005KT 4SM -RA BR OVC006 17/17 A3032 RMK AO2 DZE05RAB05 CIG 004V010 P0001 T01720172
KIAD 241152Z 06006KT 3SM -DZ BR OVC004 17/17 A3031 RMK AO2 SLP264 P0002 60003 70064 T01670167 10167 20161 51018
KIAD 241138Z 04004KT 2 1/2SM -DZ BR OVC004 17/17 A3031 RMK AO2 P0001 T01670167
KIAD 241052Z 01005KT 3SM -DZ BR OVC004 16/16 A3030 RMK AO2 SLP261 P0001 T01610161
KIAD 241029Z 01005KT 3SM -DZ BR OVC004 16/16 A3029 RMK AO2 P0001 T01610161
KIAD 240952Z 01005KT 7SM -DZ OVC005 16/16 A3028 RMK AO2 DZB49 SLP255 P0000 T01610161
KIAD 240852Z 03006KT 10SM OVC005 16/16 A3026 RMK AO2 DZE46 SLP246 P0000 60000 T01610161 53001
KIAD 240752Z 02005KT 4SM -DZ BR OVC006 16/16 A3026 RMK AO2 DZB24 SLP246 P0000 T01610161
KIAD 240652Z 03007KT 10SM OVC007 16/16 A3025 RMK AO2 DZE48 CIG 005V012 SLP243 P0000 T01610161
KIAD 240552Z 03006KT 6SM -DZ BR OVC007 17/17 A3026 RMK AO2 CIG 004V010 SLP245 P0001 60004 T01670167 10167 20161 51003
KIAD 240452Z 02004KT 4SM -DZ BR BKN007 OVC013 17/17 A3026 RMK AO2 RAB13E36DZB36 SLP245 P0001 T01670167 401670144
KIAD 240435Z 04005KT 3SM -RA BR OVC008 17/17 A3026 RMK AO2 RAB13 CIG 004V010 P0001 T01670167
KIAD 240352Z 36006KT 10SM OVC007 17/16 A3026 RMK AO2 SLP247 T01670161
KIAD 240252Z 03005KT 6SM BR FEW003 BKN009 OVC017 17/16 A3025 RMK AO2 SLP242 60002 T01670161 51010
KIAD 240152Z 01005KT 6SM BR FEW005 BKN010 OVC018 17/16 A3024 RMK AO2 SLP240 T01670161
KIAD 240132Z 02007KT 6SM BR SCT009 OVC017 17/16 A3024 RMK AO2 T01670161
KIAD 240052Z 02005KT 4SM BR OVC007 16/16 A3024 RMK AO2 RAE29 CIG 005V009 SLP239 P0002 T01610161
KIAD 232352Z 02007KT 5SM -RA BR BKN007 OVC014 16/16 A3022 RMK AO2 SLP232 P0004 60015 T01610161 10167 20161 51007
KIAD 232252Z 03007KT 2 1/2SM RA BR BKN007 OVC012 17/16 A3022 RMK AO2 SLP232 P0003 T01670161
KIAD 232152Z 03008KT 3SM -RA BR BKN008 OVC012 17/16 A3021 RMK AO2 SLP229 P0003 T01670161
KIAD 232052Z 02006KT 4SM -RA BR BKN012 OVC023 17/16 A3020 RMK AO2 SLP225 P0003 60005 T01670161 55006
KIAD 232050Z 02006KT 4SM -RA BR BKN012 OVC023 17/16 A3020 RMK AO2 P0003
KIAD 231952Z 04008KT 2 1/2SM -RA BR BKN008 OVC013 17/16 A3019 RMK AO2 RAE22B40 SLP223 P0001 T01670161
KIAD 231852Z 05007KT 2SM -RA BR BKN005 OVC011 17/17 A3020 RMK AO2 SLP225 P0001 T01670167
KIAD 231752Z 35005KT 2SM -RA BR OVC007 17/16 A3022 RMK AO2 CIG 005V009 SLP231 P0002 60042 T01670161 10167 20144 57004
KIAD 231701Z 36006KT 2 1/2SM -RA BR OVC007 16/16 A3022 RMK AO2 CIG 005V011 P0000 T01610156
KIAD 231652Z 36004KT 2SM -RA BR BKN006 BKN010 OVC023 16/16 A3022 RMK AO2 SLP232 P0004 T01610156
KIAD 231552Z 02004KT 2SM -RA BR BKN007 BKN013 OVC019 16/16 A3022 RMK AO2 SLP234 P0008 T01610156
KIAD 231523Z 02006KT 2SM -RA BR BKN008 BKN015 OVC019 16/15 A3023 RMK AO2 P0007 T01560150
KIAD 231452Z 36006KT 1 1/2SM RA BR BKN006 OVC017 15/15 A3023 RMK AO2 SLP235 P0009 60028 T01500150 51012
KIAD 231448Z 36006KT 1 1/2SM RA BR BKN006 OVC017 15/15 A3023 RMK AO2 P0008
KIAD 231430Z 35006KT 3SM RA BR BKN006 BKN018 OVC050 15/15 A3022 RMK AO2 P0005 T01500150
KIAD 231359Z 03007KT 3SM -RA BR FEW006 BKN018 OVC030 14/14 A3021 RMK AO2 P0001 T01440144
KIAD 231352Z 03006KT 2 1/2SM -RA BR BKN006 OVC028 14/14 A3021 RMK AO2 SLP230 P0014 T01440144
KIAD 231314Z 01006KT 2 1/2SM RA BR BKN006 BKN020 OVC030 14/14 A3021 RMK AO2 P0003 T01440144
KIAD 231252Z 36006KT 2 1/2SM -RA BR SCT006 BKN017 OVC050 14/14 A3021 RMK AO2 SLP229 P0005 T01440144
KIAD 231215Z 32006KT 4SM -RA BR FEW007 OVC055 14/14 A3022 RMK AO2 P0001 T01440144
KIAD 231152Z 35007KT 7SM -RA FEW040 BKN060 OVC075 14/14 A3019 RMK AO2 SLP223 P0005 60014 70014 T01440139 10161 20144 55001
KIAD 231052Z 01005KT 8SM -RA FEW040 OVC070 14/14 A3018 RMK AO2 SLP219 P0005 T01440139
KIAD 230952Z 04006KT 10SM -RA FEW036 SCT065 OVC080 15/14 A3018 RMK AO2 SLP219 P0002 T01500139
KIAD 230852Z 01006KT 10SM -RA OVC033 15/13 A3020 RMK AO2 RAE11B45 SLP223 P0000 60002 T01500133 55002
KIAD 230752Z 01006KT 10SM -RA BKN046 BKN060 OVC100 15/14 A3019 RMK AO2 SLP222 P0002 T01500139
KIAD 230652Z 03006KT 10SM -RA FEW049 BKN060 BKN120 16/13 A3019 RMK AO2 RAB11 SLP222 P0000 T01560133
KIAD 230552Z 01006KT 10SM BKN050 OVC130 16/13 A3020 RMK AO2 SLP225 T01610128 10183 20161 58003
KIAD 230452Z 01005KT 10SM BKN060 OVC150 17/12 A3021 RMK AO2 SLP227 T01670122 402440161
KIAD 230352Z 03003KT 10SM FEW100 BKN150 16/13 A3022 RMK AO2 SLP230 T01610133
KIAD 230252Z 35005KT 10SM SCT100 BKN150 17/13 A3021 RMK AO2 SLP228 T01670133 51007
KIAD 230152Z 05005KT 10SM SCT090 BKN150 17/13 A3021 RMK AO2 SLP227 T01670128
KIAD 230052Z 03007KT 10SM FEW090 BKN150 17/12 A3020 RMK AO2 SLP225 T01720122
KIAD 222352Z 02007KT 10SM FEW090 BKN140 BKN200 18/13 A3019 RMK AO2 SLP221 T01830133 10244 20183 51015
KIAD 222252Z 03011KT 10SM FEW080 BKN100 BKN200 19/14 A3017 RMK AO2 SLP216 T01940139
KIAD 222152Z 02010KT 10SM BKN100 OVC120 21/14 A3016 RMK AO2 SLP210 T02060144
KIAD 222052Z 01008KT 10SM BKN090 OVC200 21/14 A3014 RMK AO2 SLP205 T02110144 56006
KIAD 221952Z 34010KT 10SM OVC090 22/16 A3015 RMK AO2 SLP207 T02220156
KIAD 221852Z 35006G14KT 10SM SCT050 BKN100 BKN200 23/16 A3015 RMK AO2 SLP208 T02330156
KIAD 221752Z 34007KT 10SM FEW045 BKN100 BKN220 22/15 A3016 RMK AO2 SLP211 60000 T02170150 10239 20206 50004